Time;durP1;ratioP1;P1;durP2;ratioP2;P2;SDS_P1;SDS_P2;PMS_P1;PMS_P2;Temp;Humidity;BMP_temperature;BMP_pressure;BME280_temperature;BME280_humidity;BME280_pressure;Samples;Min_cycle;Max_cycle;Signal;HPM_P1;HPM_P2
2023/05/15 00:01:16;;;;;;;4.35;3.10;;;13.70;99.90;;;;;;5012088;28;20512;-40
2023/05/15 00:03:42;;;;;;;3.17;2.90;;;13.70;99.90;;;;;;5012376;28;20018;-42
2023/05/15 00:06:07;;;;;;;4.03;3.63;;;13.60;99.90;;;;;;5011503;28;20022;-40
2023/05/15 00:08:33;;;;;;;2.95;2.75;;;13.60;99.90;;;;;;5012660;28;20088;-39
2023/05/15 00:10:58;;;;;;;3.80;2.90;;;13.60;99.90;;;;;;5012315;28;20370;-39
2023/05/15 00:13:24;;;;;;;3.55;3.17;;;13.50;99.90;;;;;;5012521;28;20501;-41
2023/05/15 00:15:49;;;;;;;3.20;2.92;;;13.50;99.90;;;;;;5012520;28;20029;-46
2023/05/15 00:18:15;;;;;;;3.30;3.10;;;13.50;99.90;;;;;;5010581;28;20036;-40
2023/05/15 00:20:40;;;;;;;4.95;3.63;;;13.50;99.90;;;;;;5012053;28;20026;-41
2023/05/15 00:23:06;;;;;;;3.50;3.20;;;13.50;99.90;;;;;;5011869;28;20450;-45
2023/05/15 00:25:31;;;;;;;4.20;3.58;;;13.50;99.90;;;;;;5011992;28;20072;-41
2023/05/15 00:27:58;;;;;;;6.45;3.70;;;13.40;99.90;;;;;;5011914;28;20133;-47
2023/05/15 00:30:23;;;;;;;3.80;3.40;;;13.40;99.90;;;;;;5012207;28;20113;-46
2023/05/15 00:32:49;;;;;;;3.92;3.50;;;13.40;99.90;;;;;;5011826;28;20397;-42
2023/05/15 00:35:14;;;;;;;3.78;3.42;;;13.30;99.90;;;;;;5011696;28;20037;-44
2023/05/15 00:37:40;;;;;;;8.27;3.70;;;13.20;99.90;;;;;;5009420;28;20462;-38
2023/05/15 00:40:08;;;;;;;4.82;3.33;;;13.20;99.90;;;;;;5024368;22;20053;-50
2023/05/15 00:42:34;;;;;;;5.47;3.47;;;13.10;99.90;;;;;;4990702;28;20030;-46
2023/05/15 00:45:01;;;;;;;7.95;3.60;;;13.10;99.90;;;;;;4992020;28;20029;-49
2023/05/15 00:47:27;;;;;;;3.65;3.35;;;13.00;99.90;;;;;;4991924;28;20490;-54
2023/05/15 00:49:54;;;;;;;4.45;3.58;;;12.90;99.90;;;;;;4992100;28;20073;-49
2023/05/15 00:52:19;;;;;;;4.60;4.13;;;12.80;99.90;;;;;;4991829;28;20026;-46
2023/05/15 00:54:45;;;;;;;9.90;3.85;;;12.70;99.90;;;;;;4992152;28;20375;-49
2023/05/15 00:57:11;;;;;;;4.70;3.60;;;12.70;99.90;;;;;;4990922;28;20029;-48
2023/05/15 00:59:39;;;;;;;4.25;3.85;;;12.50;99.90;;;;;;4989143;28;20073;-48
2023/05/15 01:02:04;;;;;;;4.45;3.50;;;12.50;99.90;;;;;;4991282;28;20054;-47
2023/05/15 01:04:30;;;;;;;4.53;3.83;;;12.40;99.90;;;;;;4991886;28;20061;-44
2023/05/15 01:06:56;;;;;;;4.20;3.63;;;12.40;99.90;;;;;;4991938;28;20034;-52
2023/05/15 01:09:26;;;;;;;5.60;3.92;;;12.30;99.90;;;;;;4989725;28;20026;-48
2023/05/15 01:11:53;;;;;;;4.60;4.20;;;12.20;99.90;;;;;;4991399;28;20084;-47
2023/05/15 01:14:19;;;;;;;5.15;4.35;;;12.10;99.90;;;;;;4990592;28;20036;-48
2023/05/15 01:16:45;;;;;;;4.18;3.80;;;12.10;99.90;;;;;;4992033;28;20026;-47
2023/05/15 01:19:10;;;;;;;8.75;4.15;;;12.10;99.90;;;;;;4991511;28;20034;-49
2023/05/15 01:21:36;;;;;;;5.28;4.78;;;12.10;99.90;;;;;;4991457;28;20031;-55
2023/05/15 01:24:32;;;;;;;5.88;4.15;;;12.10;99.90;;;;;;4992245;28;20395;-45
2023/05/15 01:27:07;;;;;;;;;;;12.10;99.90;;;;;;4991027;28;20054;-51
2023/05/15 01:29:36;;;;;;;10.05;4.28;;;12.10;99.90;;;;;;4991224;28;19906;-52
2023/05/15 01:32:05;;;;;;;5.68;4.70;;;12.10;99.90;;;;;;4991325;28;20030;-49
2023/05/15 01:35:13;;;;;;;6.78;4.88;;;12.20;99.90;;;;;;4991573;28;20598;-47
2023/05/15 01:37:48;;;;;;;6.28;4.70;;;12.30;99.90;;;;;;4968694;28;20503;-49
2023/05/15 01:40:15;;;;;;;;;;;12.20;99.90;;;;;;4991944;28;20043;-48
2023/05/15 01:42:48;;;;;;;8.48;4.85;;;12.30;99.90;;;;;;4989160;28;20055;-44
2023/05/15 01:45:15;;;;;;;5.32;4.82;;;12.30;99.90;;;;;;4991701;28;20049;-47
2023/05/15 01:47:44;;;;;;;5.05;4.13;;;12.30;99.90;;;;;;4991340;28;20030;-48
2023/05/15 01:50:13;;;;;;;5.65;3.92;;;12.30;99.90;;;;;;4991563;28;20025;-48
2023/05/15 01:52:42;;;;;;;4.95;4.45;;;12.30;99.90;;;;;;4991254;28;20018;-47
2023/05/15 01:55:09;;;;;;;4.15;3.75;;;12.30;99.90;;;;;;4991675;28;20019;-49
2023/05/15 01:57:37;;;;;;;4.93;4.10;;;12.30;99.90;;;;;;4991457;28;20027;-47
2023/05/15 02:00:03;;;;;;;6.68;4.35;;;12.30;99.90;;;;;;4990511;28;20019;-44
2023/05/15 02:02:29;;;;;;;4.68;3.97;;;12.30;99.90;;;;;;4991493;28;20498;-48
2023/05/15 02:04:56;;;;;;;4.10;3.80;;;12.30;99.90;;;;;;4991633;28;20022;-47
2023/05/15 02:07:22;;;;;;;4.63;4.13;;;12.30;99.90;;;;;;4991094;28;20065;-49
2023/05/15 02:09:50;;;;;;;4.10;3.80;;;12.30;99.90;;;;;;4991465;28;20034;-48
2023/05/15 02:12:16;;;;;;;3.78;3.47;;;12.20;99.90;;;;;;4992863;28;20034;-47
2023/05/15 02:14:43;;;;;;;6.45;4.20;;;12.20;99.90;;;;;;4994926;28;20031;-48
2023/05/15 02:17:08;;;;;;;8.77;4.32;;;12.10;99.90;;;;;;4993794;28;20077;-47
2023/05/15 02:19:34;;;;;;;4.88;4.40;;;12.10;99.90;;;;;;4994961;28;20060;-48
2023/05/15 02:22:00;;;;;;;4.65;4.28;;;12.10;99.90;;;;;;4995215;28;20033;-48
2023/05/15 02:24:25;;;;;;;4.18;3.88;;;12.00;99.90;;;;;;4994784;28;20031;-56
2023/05/15 02:27:03;;;;;;;6.70;4.55;;;12.00;99.90;;;;;;4994762;28;20033;-50
2023/05/15 02:29:43;;;;;;;4.88;4.40;;;11.90;99.90;;;;;;4994291;28;20061;-50
2023/05/15 02:32:21;;;;;;;5.70;4.85;;;11.90;99.90;;;;;;4994517;28;20133;-50
2023/05/15 02:35:15;;;;;;;6.80;5.03;;;11.80;99.90;;;;;;4993896;28;20076;-51
2023/05/15 02:37:45;;;;;;;5.43;4.60;;;11.80;99.90;;;;;;4994202;28;20541;-51
2023/05/15 02:40:12;;;;;;;8.75;5.40;;;11.80;99.90;;;;;;4994308;28;20042;-49
2023/05/15 02:42:39;;;;;;;5.65;5.05;;;11.80;99.90;;;;;;4994107;28;20065;-48
2023/05/15 02:45:07;;;;;;;5.53;4.20;;;11.80;99.90;;;;;;4994418;28;20045;-50
2023/05/15 02:47:33;;;;;;;5.30;4.80;;;11.80;99.90;;;;;;4994065;28;20368;-50
2023/05/15 02:50:00;;;;;;;5.32;4.00;;;11.80;99.90;;;;;;4993104;28;20136;-49
2023/05/15 02:52:25;;;;;;;5.03;4.10;;;11.80;99.90;;;;;;4994026;28;20025;-55
2023/05/15 02:54:51;;;;;;;6.38;4.68;;;11.80;99.90;;;;;;4994155;28;20018;-48
2023/05/15 02:57:16;;;;;;;6.30;5.03;;;11.70;99.90;;;;;;4994570;28;20034;-49
2023/05/15 02:59:42;;;;;;;5.22;4.78;;;12.60;99.90;;;;;;4993117;28;20485;-47
2023/05/15 03:02:07;;;;;;;7.15;5.10;;;11.80;99.90;;;;;;4993924;28;20049;-51
2023/05/15 03:04:33;;;;;;;5.03;4.53;;;11.70;99.90;;;;;;4993995;28;20030;-47
2023/05/15 03:06:58;;;;;;;7.20;5.43;;;11.70;99.90;;;;;;4994037;28;20461;-47
2023/05/15 03:09:24;;;;;;;5.50;4.97;;;11.70;99.90;;;;;;4993590;28;20030;-47
2023/05/15 03:11:49;;;;;;;7.13;4.93;;;11.70;99.90;;;;;;4993863;28;20101;-51
2023/05/15 03:14:15;;;;;;;5.95;5.38;;;11.70;99.90;;;;;;4994107;28;20053;-51
2023/05/15 03:16:41;;;;;;;14.05;5.32;;;11.60;99.90;;;;;;4993854;28;20113;-53
2023/05/15 03:19:06;;;;;;;6.85;5.60;;;12.20;99.90;;;;;;4992555;28;20034;-52
2023/05/15 03:21:33;;;;;;;6.00;5.40;;;11.50;99.90;;;;;;4992213;28;20495;-51
2023/05/15 03:23:59;;;;;;;4.68;4.28;;;11.50;99.90;;;;;;4992884;28;20022;-52
2023/05/15 03:26:25;;;;;;;5.72;5.22;;;11.50;99.90;;;;;;4993619;28;20376;-51
2023/05/15 03:28:51;;;;;;;7.13;4.85;;;11.50;99.90;;;;;;4993152;28;20022;-49
2023/05/15 03:31:17;;;;;;;5.05;4.60;;;11.50;99.90;;;;;;4993170;28;20018;-49
2023/05/15 03:33:44;;;;;;;5.90;4.88;;;11.60;99.90;;;;;;4993375;28;20031;-52
2023/05/15 03:36:10;;;;;;;5.50;4.70;;;11.50;99.90;;;;;;4993457;28;20117;-50
2023/05/15 03:38:35;;;;;;;6.18;5.03;;;11.60;99.90;;;;;;4993032;28;20031;-47
2023/05/15 03:41:01;;;;;;;6.00;5.07;;;11.50;99.90;;;;;;4992974;28;20045;-51
2023/05/15 03:43:27;;;;;;;5.53;5.03;;;11.50;99.90;;;;;;4993453;28;20022;-52
2023/05/15 03:45:52;;;;;;;4.65;4.25;;;11.50;99.90;;;;;;4993210;28;20422;-50
2023/05/15 03:48:18;;;;;;;4.85;4.45;;;11.50;99.90;;;;;;4992837;28;20026;-51
2023/05/15 03:50:44;;;;;;;8.32;4.68;;;11.50;99.90;;;;;;4993102;28;20109;-52
2023/05/15 03:53:10;;;;;;;5.90;4.60;;;11.50;99.90;;;;;;4992648;28;20030;-49
2023/05/15 03:55:35;;;;;;;5.70;4.82;;;11.50;99.90;;;;;;4992088;28;20042;-52
2023/05/15 03:58:01;;;;;;;9.27;4.80;;;11.50;99.90;;;;;;4992725;28;20034;-52
2023/05/15 04:00:27;;;;;;;5.45;4.70;;;11.50;99.90;;;;;;4991921;28;20478;-52
2023/05/15 04:02:52;;;;;;;10.80;5.13;;;11.50;99.90;;;;;;4992567;28;20030;-50
2023/05/15 04:05:21;;;;;;;5.22;4.82;;;11.40;99.90;;;;;;4992765;28;20030;-50
2023/05/15 04:07:46;;;;;;;5.40;4.93;;;11.40;99.90;;;;;;4992590;28;20022;-51
2023/05/15 04:10:12;;;;;;;5.53;5.00;;;11.50;99.90;;;;;;4992868;28;20053;-52
2023/05/15 04:12:38;;;;;;;5.32;4.82;;;11.60;99.90;;;;;;4992544;28;20513;-53
2023/05/15 04:15:13;;;;;;;9.55;6.78;;;11.60;99.90;;;;;;4991475;28;20062;-48
2023/05/15 04:17:38;;;;;;;5.82;5.05;;;11.70;99.90;;;;;;4992683;28;20397;-53
2023/05/15 04:20:05;;;;;;;6.03;5.32;;;11.80;99.90;;;;;;4992690;28;20030;-52
2023/05/15 04:22:31;;;;;;;5.40;4.95;;;11.80;99.90;;;;;;4992301;28;20022;-47
2023/05/15 04:24:56;;;;;;;6.07;5.07;;;11.80;99.90;;;;;;4992580;28;20029;-48
2023/05/15 04:27:22;;;;;;;7.93;4.97;;;11.80;99.90;;;;;;4990878;28;20576;-50
2023/05/15 04:29:47;;;;;;;7.28;5.05;;;11.90;99.90;;;;;;4992441;28;20026;-52
2023/05/15 04:32:13;;;;;;;6.10;4.82;;;11.90;99.90;;;;;;4991481;28;20018;-50
2023/05/15 04:34:39;;;;;;;6.10;4.60;;;12.00;99.90;;;;;;4992233;28;20117;-51
2023/05/15 04:37:05;;;;;;;5.82;4.55;;;12.10;99.90;;;;;;4992454;28;20030;-51
2023/05/15 04:39:31;;;;;;;9.77;5.20;;;12.20;99.90;;;;;;4991872;28;20089;-50
2023/05/15 04:41:56;;;;;;;5.55;4.70;;;12.40;99.90;;;;;;4990783;28;20030;-52
2023/05/15 04:44:22;;;;;;;6.10;5.50;;;12.50;99.90;;;;;;4992204;28;20541;-51
2023/05/15 04:46:47;;;;;;;4.72;4.10;;;12.60;99.90;;;;;;4992223;28;20045;-53
2023/05/15 04:49:13;;;;;;;5.07;4.10;;;12.90;99.90;;;;;;4991418;28;20077;-53
2023/05/15 04:51:40;;;;;;;6.05;4.85;;;13.50;99.90;;;;;;4991848;28;20019;-50
2023/05/15 04:54:05;;;;;;;6.95;4.38;;;14.30;99.90;;;;;;4990818;28;20077;-49
2023/05/15 04:56:31;;;;;;;4.18;3.78;;;15.00;99.90;;;;;;4992169;28;20030;-48
2023/05/15 04:58:56;;;;;;;6.32;3.78;;;15.90;99.90;;;;;;4990707;28;20149;-49
2023/05/15 05:01:22;;;;;;;6.28;4.43;;;16.60;99.90;;;;;;4991707;28;20438;-52
2023/05/15 05:03:47;;;;;;;4.22;3.83;;;17.40;99.90;;;;;;4991962;28;20038;-49
2023/05/15 05:06:13;;;;;;;5.15;3.55;;;18.10;99.90;;;;;;4990981;28;20053;-50
2023/05/15 05:08:38;;;;;;;7.13;3.22;;;18.80;99.90;;;;;;4991804;28;20023;-49
2023/05/15 05:11:04;;;;;;;7.53;3.67;;;19.50;99.90;;;;;;4991690;28;20105;-51
2023/05/15 05:13:29;;;;;;;5.45;3.65;;;19.70;99.90;;;;;;4992446;28;20023;-50
2023/05/15 05:15:55;;;;;;;6.10;3.17;;;20.00;99.90;;;;;;4991855;28;20033;-53
2023/05/15 05:18:20;;;;;;;3.97;3.28;;;20.20;99.90;;;;;;4991597;28;20058;-52
2023/05/15 05:20:46;;;;;;;2.97;2.67;;;20.40;99.90;;;;;;4991942;28;20034;-49
2023/05/15 05:23:13;;;;;;;7.25;3.75;;;20.60;99.90;;;;;;4991617;28;20505;-50
2023/05/15 05:25:39;;;;;;;3.30;3.10;;;20.70;99.90;;;;;;4991605;28;20045;-50
2023/05/15 05:28:04;;;;;;;3.75;3.50;;;20.90;99.90;;;;;;4991205;28;20094;-52
2023/05/15 05:30:30;;;;;;;4.10;3.53;;;21.20;99.60;;;;;;4991579;28;20034;-51
2023/05/15 05:32:55;;;;;;;5.78;3.28;;;21.60;98.90;;;;;;4991482;28;20394;-46
2023/05/15 05:35:21;;;;;;;3.47;3.17;;;22.00;97.80;;;;;;4990502;28;20023;-51
2023/05/15 05:37:46;;;;;;;3.08;2.63;;;22.40;97.50;;;;;;4991499;28;20030;-52
2023/05/15 05:40:12;;;;;;;3.20;2.90;;;22.50;97.20;;;;;;4991543;28;20065;-51
2023/05/15 05:42:37;;;;;;;3.53;3.22;;;23.00;96.60;;;;;;4990408;28;20030;-51
2023/05/15 05:45:05;;;;;;;4.40;2.90;;;23.40;96.20;;;;;;4991268;28;20038;-49
2023/05/15 05:47:30;;;;;;;3.25;3.05;;;23.90;95.30;;;;;;4993679;28;20035;-52
2023/05/15 05:49:56;;;;;;;2.42;2.28;;;24.30;94.50;;;;;;4995996;28;20105;-49
2023/05/15 05:52:21;;;;;;;2.58;2.40;;;24.20;94.50;;;;;;4995148;28;20033;-47
2023/05/15 05:54:47;;;;;;;6.13;3.03;;;24.10;93.90;;;;;;4995129;28;20026;-48
2023/05/15 05:57:13;;;;;;;3.33;2.97;;;23.70;94.60;;;;;;4995216;28;20105;-47
2023/05/15 05:59:39;;;;;;;3.70;3.03;;;23.80;94.30;;;;;;4993666;28;20018;-48
2023/05/15 06:02:05;;;;;;;3.35;2.80;;;23.90;93.70;;;;;;4993560;28;20022;-50
2023/05/15 06:04:32;;;;;;;2.35;2.22;;;24.10;93.60;;;;;;4995181;28;20033;-50
2023/05/15 06:06:58;;;;;;;2.60;2.40;;;23.70;94.00;;;;;;4995027;28;20172;-48
2023/05/15 06:09:23;;;;;;;3.70;2.05;;;23.40;94.40;;;;;;4995003;28;20445;-49
2023/05/15 06:11:49;;;;;;;2.25;2.15;;;23.10;95.50;;;;;;4994783;28;20026;-48
2023/05/15 06:14:14;;;;;;;2.22;2.10;;;23.30;94.80;;;;;;4994835;28;20026;-47
2023/05/15 06:16:40;;;;;;;2.70;2.50;;;23.30;95.00;;;;;;4993863;28;20458;-48
2023/05/15 06:19:06;;;;;;;2.35;2.15;;;23.20;94.90;;;;;;4994602;28;20406;-47
2023/05/15 06:21:31;;;;;;;3.63;2.72;;;23.00;95.10;;;;;;4994604;28;20509;-49
2023/05/15 06:23:57;;;;;;;2.92;2.72;;;23.00;94.70;;;;;;4994801;28;20386;-49
2023/05/15 06:26:22;;;;;;;4.78;2.58;;;22.80;95.10;;;;;;4993655;28;20027;-49
2023/05/15 06:28:48;;;;;;;3.25;2.33;;;22.60;94.80;;;;;;4994410;28;20038;-51
2023/05/15 06:31:13;;;;;;;2.53;2.33;;;22.90;95.00;;;;;;4994532;28;20121;-48
2023/05/15 06:33:39;;;;;;;4.65;2.25;;;23.60;94.60;;;;;;4994848;28;20019;-50
2023/05/15 06:36:05;;;;;;;2.38;2.17;;;24.80;93.20;;;;;;4994521;28;20022;-51
2023/05/15 06:38:30;;;;;;;2.33;2.00;;;25.80;92.30;;;;;;4994638;28;20538;-49
2023/05/15 06:40:56;;;;;;;3.00;1.90;;;25.60;91.30;;;;;;4994655;28;20113;-49
2023/05/15 06:43:21;;;;;;;3.47;2.20;;;25.80;90.90;;;;;;4994613;28;20491;-52
2023/05/15 06:45:47;;;;;;;2.53;2.33;;;25.60;90.50;;;;;;4994697;28;20034;-47
2023/05/15 06:48:13;;;;;;;2.78;2.45;;;25.40;90.50;;;;;;4992982;28;20496;-50
2023/05/15 06:50:38;;;;;;;2.17;2.00;;;25.50;90.50;;;;;;4993314;28;20027;-49
2023/05/15 06:53:04;;;;;;;2.67;2.47;;;26.30;87.90;;;;;;4994156;28;20030;-52
2023/05/15 06:55:29;;;;;;;2.00;1.90;;;26.20;88.10;;;;;;4993106;28;20368;-50
2023/05/15 06:57:55;;;;;;;4.07;2.33;;;26.20;88.60;;;;;;4993012;28;20061;-47
2023/05/15 07:00:20;;;;;;;3.50;1.80;;;26.90;87.70;;;;;;4993030;28;20022;-54
2023/05/15 07:02:46;;;;;;;2.38;2.10;;;27.50;85.30;;;;;;4993898;28;20038;-49
2023/05/15 07:05:13;;;;;;;4.20;2.78;;;27.00;85.80;;;;;;4993761;28;20053;-48
2023/05/15 07:07:38;;;;;;;2.80;2.50;;;26.80;86.70;;;;;;4993704;28;20030;-47
2023/05/15 07:10:04;;;;;;;2.53;2.33;;;26.00;88.40;;;;;;4990944;28;20049;-50
2023/05/15 07:12:31;;;;;;;2.30;2.20;;;25.00;90.50;;;;;;4992571;28;20106;-46
2023/05/15 07:14:57;;;;;;;5.45;2.38;;;24.60;91.70;;;;;;4993468;28;20046;-49
2023/05/15 07:17:22;;;;;;;6.75;2.45;;;24.50;91.60;;;;;;4991069;28;20054;-48
2023/05/15 07:19:48;;;;;;;5.13;2.88;;;24.70;91.20;;;;;;4993558;28;20045;-47
2023/05/15 07:22:13;;;;;;;6.07;2.67;;;24.80;90.80;;;;;;4992434;28;20113;-45
2023/05/15 07:24:39;;;;;;;3.00;2.50;;;25.10;90.50;;;;;;4993327;28;20038;-46
2023/05/15 07:27:04;;;;;;;7.68;2.80;;;26.00;89.30;;;;;;4992391;28;20033;-47
2023/05/15 07:29:30;;;;;;;5.53;3.00;;;26.60;87.80;;;;;;4993104;28;20037;-49
2023/05/15 07:31:56;;;;;;;3.15;2.70;;;27.10;86.20;;;;;;4993238;28;20022;-50
2023/05/15 07:34:22;;;;;;;3.35;3.13;;;26.70;86.20;;;;;;4993556;28;20018;-47
2023/05/15 07:36:47;;;;;;;9.52;3.45;;;27.10;86.80;;;;;;4993744;28;20049;-52
2023/05/15 07:39:13;;;;;;;2.67;2.47;;;27.30;85.50;;;;;;4992893;28;20081;-47
2023/05/15 07:41:38;;;;;;;5.57;2.75;;;27.40;85.20;;;;;;4993124;28;20076;-48
2023/05/15 07:44:04;;;;;;;4.68;2.60;;;27.30;84.60;;;;;;4992670;28;20085;-51
2023/05/15 07:46:30;;;;;;;4.30;2.60;;;27.20;86.20;;;;;;4993246;28;20023;-50
2023/05/15 07:48:56;;;;;;;4.10;3.08;;;27.80;85.80;;;;;;4993120;28;20442;-51
2023/05/15 07:51:21;;;;;;;7.30;3.30;;;28.30;84.40;;;;;;4992175;28;20449;-53
2023/05/15 07:53:47;;;;;;;3.28;2.80;;;28.40;82.90;;;;;;4993039;28;20026;-48
2023/05/15 07:56:12;;;;;;;6.75;2.53;;;29.00;82.70;;;;;;4992405;28;20080;-51
2023/05/15 07:58:39;;;;;;;7.53;2.58;;;29.30;81.10;;;;;;4992553;28;20035;-51
2023/05/15 08:01:04;;;;;;;4.03;2.80;;;28.80;81.30;;;;;;4991628;28;20026;-49
2023/05/15 08:03:30;;;;;;;6.70;2.67;;;29.30;80.90;;;;;;4993025;28;20576;-52
2023/05/15 08:05:56;;;;;;;5.82;2.85;;;29.70;80.60;;;;;;4992789;28;20022;-48
2023/05/15 08:08:21;;;;;;;3.67;2.85;;;30.00;79.50;;;;;;4991766;28;20037;-49
2023/05/15 08:10:46;;;;;;;3.25;2.50;;;29.10;79.40;;;;;;4992098;28;20034;-49
2023/05/15 08:13:12;;;;;;;8.63;3.50;;;27.80;81.30;;;;;;4992443;28;20406;-51
2023/05/15 08:15:37;;;;;;;11.00;2.63;;;27.50;81.60;;;;;;4992540;28;20113;-54
2023/05/15 08:18:10;;;;;;;3.97;2.42;;;27.20;83.80;;;;;;4991374;28;20478;-49
2023/05/15 08:20:37;;;;;;;4.05;3.10;;;27.30;82.40;;;;;;4992611;28;20034;-52
2023/05/15 08:23:02;;;;;;;3.28;2.97;;;26.90;84.00;;;;;;4991953;28;20030;-48
2023/05/15 08:25:28;;;;;;;4.55;3.17;;;27.30;82.10;;;;;;4992359;28;20088;-51
2023/05/15 08:27:53;;;;;;;3.20;2.90;;;26.70;82.60;;;;;;4992264;28;20030;-52
2023/05/15 08:30:19;;;;;;;4.78;2.67;;;27.10;83.40;;;;;;4992478;28;20026;-48
2023/05/15 08:32:45;;;;;;;3.88;2.70;;;27.60;81.60;;;;;;4991747;28;20023;-44
2023/05/15 08:35:10;;;;;;;4.30;2.92;;;27.50;82.60;;;;;;4991196;28;20025;-49
2023/05/15 08:37:36;;;;;;;10.45;3.70;;;27.20;81.50;;;;;;4991640;28;20026;-48
2023/05/15 08:40:04;;;;;;;5.45;3.50;;;26.70;82.80;;;;;;4992183;28;20038;-47
2023/05/15 08:42:36;;;;;;;6.43;3.67;;;26.20;84.20;;;;;;4991833;28;20049;-50
2023/05/15 08:45:02;;;;;;;5.40;4.60;;;25.60;85.30;;;;;;4992355;28;20026;-52
2023/05/15 08:47:30;;;;;;;13.32;4.22;;;24.50;90.00;;;;;;4991690;28;20030;-51
2023/05/15 08:50:05;;;;;;;5.45;4.95;;;24.30;90.50;;;;;;4992509;28;20068;-53
2023/05/15 08:52:32;;;;;;;6.90;6.07;;;24.10;90.40;;;;;;4991700;28;20387;-50
2023/05/15 08:54:59;;;;;;;11.32;6.57;;;23.80;90.70;;;;;;4991909;28;20371;-47
2023/05/15 08:57:26;;;;;;;9.15;7.00;;;23.20;91.80;;;;;;4991835;28;20022;-52
2023/05/15 08:59:53;;;;;;;8.25;6.43;;;22.90;92.10;;;;;;4992197;28;20026;-53
2023/05/15 09:02:20;;;;;;;9.52;7.40;;;22.70;92.60;;;;;;4991742;28;20089;-54
2023/05/15 09:04:46;;;;;;;10.18;7.22;;;22.50;92.90;;;;;;4991511;28;20030;-54
2023/05/15 09:07:12;;;;;;;11.15;8.35;;;22.30;93.40;;;;;;4990661;28;20046;-50
2023/05/15 09:09:38;;;;;;;16.15;8.80;;;21.80;94.00;;;;;;4991138;28;20034;-50
2023/05/15 09:12:06;;;;;;;10.73;7.85;;;21.70;94.60;;;;;;4990314;28;20109;-47
2023/05/15 09:14:31;;;;;;;14.07;6.90;;;22.00;94.40;;;;;;4991951;28;20030;-53
2023/05/15 09:16:58;;;;;;;8.13;5.47;;;22.40;93.40;;;;;;4991290;28;20527;-50
2023/05/15 09:19:23;;;;;;;9.10;7.00;;;22.50;93.30;;;;;;4991280;28;20068;-49
2023/05/15 09:21:49;;;;;;;10.30;6.55;;;22.60;93.00;;;;;;4992841;28;20497;-49
2023/05/15 09:24:16;;;;;;;14.25;7.88;;;22.40;93.70;;;;;;4995072;28;20022;-49
2023/05/15 09:26:43;;;;;;;10.90;8.20;;;22.40;93.80;;;;;;4995614;28;20041;-50
2023/05/15 09:29:09;;;;;;;10.65;9.38;;;22.40;93.60;;;;;;4995921;28;20478;-49
2023/05/15 09:31:34;;;;;;;12.57;8.75;;;22.20;93.50;;;;;;4995658;28;20034;-48
2023/05/15 09:34:03;;;;;;;15.60;11.18;;;22.10;93.20;;;;;;4991199;28;20032;-49
2023/05/15 09:36:29;;;;;;;12.38;10.88;;;22.20;93.50;;;;;;4995297;28;20457;-48
2023/05/15 09:38:59;;;;;;;17.00;11.50;;;22.30;94.10;;;;;;4995052;28;20023;-47
2023/05/15 09:41:25;;;;;;;16.35;11.60;;;21.80;94.10;;;;;;4995571;28;20053;-50
2023/05/15 09:43:51;;;;;;;16.65;11.73;;;21.70;94.20;;;;;;4994917;28;20088;-50
2023/05/15 09:46:17;;;;;;;16.40;12.02;;;21.90;94.90;;;;;;4991091;28;20027;-50
2023/05/15 09:48:42;;;;;;;16.70;10.35;;;22.00;94.70;;;;;;4994463;28;20033;-49
2023/05/15 09:51:18;;;;;;;19.10;11.93;;;22.20;94.30;;;;;;4994283;28;20267;-45
2023/05/15 09:53:54;;;;;;;20.13;11.65;;;22.40;93.50;;;;;;4994865;28;20026;-49
2023/05/15 09:56:20;;;;;;;19.25;12.73;;;22.60;93.20;;;;;;4993463;28;20367;-47
2023/05/15 09:58:57;;;;;;;18.20;12.23;;;22.50;94.10;;;;;;4994080;28;20065;-48
2023/05/15 10:01:23;;;;;;;19.80;11.02;;;22.20;93.80;;;;;;4993350;28;20034;-47
2023/05/15 10:03:58;;;;;;;17.13;12.02;;;22.30;93.40;;;;;;4992838;28;20034;-48
2023/05/15 10:06:24;;;;;;;11.60;10.38;;;22.20;93.50;;;;;;4994471;28;20038;-48
2023/05/15 10:08:53;;;;;;;17.40;11.43;;;22.10;93.80;;;;;;4993480;28;20517;-50
2023/05/15 10:11:22;;;;;;;16.23;12.35;;;22.10;94.70;;;;;;4991594;28;20022;-48
2023/05/15 10:13:48;;;;;;;16.15;12.45;;;21.90;94.70;;;;;;4993119;28;20035;-50
2023/05/15 10:16:14;;;;;;;22.58;13.68;;;22.00;95.00;;;;;;4993785;28;20033;-48
2023/05/15 10:18:42;;;;;;;15.25;12.52;;;22.00;94.40;;;;;;4993839;28;20353;-48
2023/05/15 10:21:09;;;;;;;18.67;12.50;;;22.10;95.10;;;;;;4991106;28;20409;-47
2023/05/15 10:23:41;;;;;;;19.45;12.23;;;22.10;94.90;;;;;;4992699;28;20113;-49
2023/05/15 10:26:13;;;;;;;20.52;12.73;;;22.00;95.30;;;;;;4994296;28;20030;-48
2023/05/15 10:28:39;;;;;;;20.42;12.02;;;21.70;94.70;;;;;;4993831;28;20092;-47
2023/05/15 10:31:05;;;;;;;20.70;12.13;;;21.40;95.40;;;;;;4994061;28;20561;-50
2023/05/15 10:33:31;;;;;;;17.58;12.05;;;21.20;95.40;;;;;;4994102;28;20053;-54
2023/05/15 10:35:58;;;;;;;25.92;13.00;;;21.00;96.10;;;;;;4992904;28;20026;-49
2023/05/15 10:38:25;;;;;;;22.33;14.13;;;20.50;96.90;;;;;;4993648;28;20038;-50
2023/05/15 10:40:51;;;;;;;24.17;13.43;;;20.30;97.40;;;;;;4993768;28;20026;-59
2023/05/15 10:43:19;;;;;;;25.15;13.88;;;20.00;97.90;;;;;;4992206;28;20113;-49
2023/05/15 10:45:46;;;;;;;19.52;13.75;;;19.80;98.50;;;;;;4993585;28;20062;-48
2023/05/15 10:48:13;;;;;;;21.48;13.48;;;19.70;99.10;;;;;;4974047;28;20027;-52
2023/05/15 10:50:39;;;;;;;20.08;13.90;;;19.50;99.40;;;;;;4983447;28;20483;-52
2023/05/15 10:53:05;;;;;;;26.30;13.07;;;19.50;99.70;;;;;;4993450;28;20026;-48
2023/05/15 10:55:30;;;;;;;17.52;11.63;;;19.50;99.50;;;;;;4993826;28;20022;-49
2023/05/15 10:57:56;;;;;;;18.60;12.30;;;19.50;99.00;;;;;;4991543;28;20022;-48
2023/05/15 11:00:21;;;;;;;19.60;11.23;;;19.50;98.90;;;;;;4993803;28;20027;-51
2023/05/15 11:02:48;;;;;;;23.30;15.48;;;19.50;98.80;;;;;;4993292;28;20110;-50
2023/05/15 11:05:13;;;;;;;26.67;16.45;;;19.50;98.50;;;;;;4993519;28;20030;-52
2023/05/15 11:07:39;;;;;;;18.70;11.38;;;19.60;98.80;;;;;;4992391;28;20291;-47
2023/05/15 11:10:26;;;;;;;12.25;9.85;;;19.50;98.50;;;;;;4992804;28;20037;-49
2023/05/15 11:13:00;;;;;;;18.25;11.50;;;19.40;98.70;;;;;;4991547;28;20030;-46
2023/05/15 11:15:26;;;;;;;23.67;10.88;;;19.50;98.90;;;;;;4993165;28;20157;-49
2023/05/15 11:18:07;;;;;;;17.70;11.27;;;19.60;98.80;;;;;;4992771;28;20438;-52
2023/05/15 11:20:50;;;;;;;12.60;9.45;;;19.60;98.30;;;;;;4993106;28;20030;-49
2023/05/15 11:23:21;;;;;;;11.27;8.77;;;19.70;98.30;;;;;;4992948;28;20026;-47
2023/05/15 11:25:53;;;;;;;13.25;9.85;;;19.80;98.20;;;;;;4993440;28;20053;-46
2023/05/15 11:28:23;;;;;;;13.32;8.30;;;20.10;97.60;;;;;;4992226;28;20109;-52
2023/05/15 11:30:53;;;;;;;10.75;8.18;;;20.20;97.10;;;;;;4972646;28;20031;-49
2023/05/15 11:33:19;;;;;;;15.25;8.02;;;20.30;96.30;;;;;;4981604;28;20041;-48
2023/05/15 11:35:48;;;;;;;12.23;7.90;;;20.50;94.80;;;;;;4992880;28;20030;-51
2023/05/15 11:38:21;;;;;;;11.23;8.40;;;20.70;95.10;;;;;;4992161;28;20390;-49
2023/05/15 11:40:51;;;;;;;11.85;8.85;;;20.80;95.00;;;;;;4978849;28;20486;-49
2023/05/15 11:43:29;;;;;;;9.88;7.75;;;20.80;94.80;;;;;;4992150;28;20490;-50
2023/05/15 11:46:07;;;;;;;11.82;9.15;;;20.80;94.50;;;;;;4992670;28;20023;-47
2023/05/15 11:48:43;;;;;;;12.57;7.47;;;20.80;93.30;;;;;;4992737;28;20042;-46
2023/05/15 11:51:23;;;;;;;9.20;8.05;;;20.90;93.50;;;;;;4992774;28;20049;-48
2023/05/15 11:53:51;;;;;;;12.75;8.55;;;21.10;94.70;;;;;;4992266;28;20018;-48
2023/05/15 11:56:21;;;;;;;13.93;9.13;;;21.30;94.30;;;;;;4992337;28;20026;-52
2023/05/15 11:58:56;;;;;;;16.35;8.82;;;21.40;93.00;;;;;;4992086;28;20030;-46
2023/05/15 12:01:21;;;;;;;14.25;8.27;;;21.00;93.50;;;;;;4992111;28;20359;-46
2023/05/15 12:03:48;;;;;;;9.85;8.15;;;21.10;93.90;;;;;;4992055;28;20041;-49
2023/05/15 12:06:14;;;;;;;9.50;8.35;;;20.90;94.00;;;;;;4991385;28;20073;-52
2023/05/15 12:08:40;;;;;;;11.93;9.02;;;20.70;93.00;;;;;;4992150;28;20529;-49
2023/05/15 12:11:06;;;;;;;12.05;8.57;;;20.30;93.50;;;;;;4992409;28;20096;-49
2023/05/15 12:13:33;;;;;;;10.65;8.43;;;20.30;93.70;;;;;;4992754;28;20096;-51
2023/05/15 12:15:59;;;;;;;9.15;7.38;;;20.40;94.10;;;;;;4992691;28;20037;-47
2023/05/15 12:18:25;;;;;;;9.85;6.90;;;20.50;93.20;;;;;;4992373;28;20080;-48
2023/05/15 12:20:52;;;;;;;10.15;6.38;;;20.70;92.30;;;;;;4992783;28;20383;-50
2023/05/15 12:23:20;;;;;;;10.43;6.70;;;20.80;90.90;;;;;;4992591;28;20037;-48
2023/05/15 12:25:47;;;;;;;8.15;7.18;;;21.00;90.80;;;;;;4992297;28;20045;-48
2023/05/15 12:28:13;;;;;;;11.75;8.20;;;20.90;91.30;;;;;;4992237;28;20112;-50
2023/05/15 12:30:41;;;;;;;9.77;7.95;;;20.90;91.90;;;;;;4991397;28;20022;-48
2023/05/15 12:33:08;;;;;;;13.02;8.55;;;21.00;92.70;;;;;;4992094;28;20022;-48
2023/05/15 12:35:41;;;;;;;8.55;7.65;;;21.30;92.60;;;;;;4991955;28;20053;-52
2023/05/15 12:38:07;;;;;;;9.77;6.10;;;21.50;92.30;;;;;;4991751;28;20100;-49
2023/05/15 12:40:34;;;;;;;10.07;5.70;;;21.40;89.80;;;;;;4991325;28;20053;-48
2023/05/15 12:43:04;;;;;;;11.98;5.75;;;21.00;90.70;;;;;;4991701;28;20038;-51